createdAt,value
2023-04-23T00:01:44.951Z,3.90
2023-04-23T00:04:13.557Z,3.90
2023-04-23T00:06:41.902Z,4.00
2023-04-23T00:09:09.861Z,4.00
2023-04-23T00:11:36.721Z,3.90
2023-04-23T00:14:03.395Z,4.20
2023-04-23T00:16:30.166Z,4.00
2023-04-23T00:18:56.669Z,4.00
2023-04-23T00:21:23.299Z,4.10
2023-04-23T00:23:49.892Z,3.80
2023-04-23T00:26:18.425Z,4.40
2023-04-23T00:28:44.880Z,4.20
2023-04-23T00:31:11.433Z,4.10
2023-04-23T00:33:38.582Z,3.90
2023-04-23T00:36:05.491Z,4.30
2023-04-23T00:38:31.965Z,4.20
2023-04-23T00:40:58.727Z,3.90
2023-04-23T00:43:25.184Z,4.20
2023-04-23T00:45:51.755Z,3.70
2023-04-23T00:48:18.391Z,3.90
2023-04-23T00:50:46.255Z,3.80
2023-04-23T00:53:12.992Z,3.80
2023-04-23T00:55:40.423Z,3.70
2023-04-23T00:58:07.061Z,3.90
2023-04-23T01:00:41.154Z,3.90
2023-04-23T01:03:08.221Z,3.60
2023-04-23T01:05:35.009Z,3.80
2023-04-23T01:08:01.861Z,4.10
2023-04-23T01:10:28.761Z,4.40
2023-04-23T01:12:55.458Z,4.10
2023-04-23T01:15:22.490Z,4.10
2023-04-23T01:17:49.006Z,4.30
2023-04-23T01:20:16.418Z,4.20
2023-04-23T01:22:42.961Z,4.20
2023-04-23T01:25:10.331Z,4.40
2023-04-23T01:27:37.219Z,4.60
2023-04-23T01:30:06.029Z,4.60
2023-04-23T01:32:33.013Z,4.40
2023-04-23T01:35:00.218Z,4.30
2023-04-23T01:37:29.053Z,4.30
2023-04-23T01:39:56.554Z,4.20
2023-04-23T01:42:23.515Z,4.70
2023-04-23T01:44:50.298Z,4.60
2023-04-23T01:47:18.393Z,6.00
2023-04-23T01:49:44.978Z,6.50
2023-04-23T01:52:11.913Z,7.30
2023-04-23T01:54:38.812Z,8.80
2023-04-23T01:57:05.572Z,8.20
2023-04-23T01:59:32.295Z,9.30
2023-04-23T02:01:59.249Z,9.60
2023-04-23T02:04:26.492Z,9.70
2023-04-23T02:06:53.149Z,11.20
2023-04-23T02:09:19.893Z,11.70
2023-04-23T02:11:46.342Z,12.50
2023-04-23T02:14:13.501Z,11.60
2023-04-23T02:16:40.175Z,12.00
2023-04-23T02:19:07.041Z,13.30
2023-04-23T02:21:33.654Z,12.60
2023-04-23T02:24:00.273Z,13.00
2023-04-23T02:26:27.221Z,12.80
2023-04-23T02:28:53.895Z,13.50
2023-04-23T02:31:20.923Z,13.70
2023-04-23T02:33:47.727Z,13.10
2023-04-23T02:36:14.435Z,13.60
2023-04-23T02:38:42.430Z,13.10
2023-04-23T02:41:09.300Z,13.50
2023-04-23T02:43:35.792Z,13.90
2023-04-23T02:46:08.497Z,15.20
2023-04-23T02:48:40.469Z,15.60
2023-04-23T02:51:09.187Z,15.60
2023-04-23T02:53:36.092Z,15.50
2023-04-23T02:56:03.015Z,15.20
2023-04-23T02:58:29.777Z,17.40
2023-04-23T03:00:57.147Z,16.40
2023-04-23T03:03:26.702Z,16.00
2023-04-23T03:05:54.859Z,17.20
2023-04-23T03:08:21.917Z,18.00
2023-04-23T03:10:48.656Z,17.70
2023-04-23T03:13:15.792Z,17.60
2023-04-23T03:15:42.661Z,17.40
2023-04-23T03:18:09.446Z,17.80
2023-04-23T03:20:36.320Z,18.30
2023-04-23T03:23:03.594Z,18.80
2023-04-23T03:25:30.451Z,20.20
2023-04-23T03:27:57.195Z,18.00
2023-04-23T03:30:24.018Z,19.80
2023-04-23T03:32:50.917Z,17.70
2023-04-23T03:35:17.528Z,19.80
2023-04-23T03:37:44.217Z,18.90
2023-04-23T03:40:10.958Z,20.00
2023-04-23T03:42:37.581Z,19.60
2023-04-23T03:45:04.825Z,19.70
2023-04-23T03:47:31.772Z,20.00
2023-04-23T03:49:58.464Z,21.90
2023-04-23T03:52:25.133Z,20.40
2023-04-23T03:54:51.973Z,19.80
2023-04-23T03:57:18.762Z,18.30
2023-04-23T03:59:45.460Z,20.20
2023-04-23T04:02:12.063Z,21.10
2023-04-23T04:04:39.038Z,20.70
2023-04-23T04:07:07.468Z,21.50
2023-04-23T04:09:34.210Z,20.30
2023-04-23T04:12:00.911Z,18.50
2023-04-23T04:14:27.474Z,20.20
2023-04-23T04:16:54.835Z,21.80
2023-04-23T04:19:21.260Z,20.30
2023-04-23T04:21:48.029Z,22.50
2023-04-23T04:24:14.716Z,21.80
2023-04-23T04:26:42.046Z,21.30
2023-04-23T04:29:10.510Z,23.10
2023-04-23T04:31:37.460Z,21.20
2023-04-23T04:34:04.939Z,23.30
2023-04-23T04:36:31.938Z,21.60
2023-04-23T04:38:58.800Z,23.10
2023-04-23T04:41:25.618Z,21.80
2023-04-23T04:43:52.229Z,20.70
2023-04-23T04:46:21.646Z,23.40
2023-04-23T04:48:48.587Z,21.80
2023-04-23T04:51:15.861Z,23.10
2023-04-23T04:53:42.502Z,23.20
2023-04-23T04:56:09.452Z,23.10
2023-04-23T04:58:36.397Z,22.40
2023-04-23T05:01:03.027Z,23.20
2023-04-23T05:03:29.868Z,23.50
2023-04-23T05:05:56.711Z,22.00
2023-04-23T05:08:23.373Z,22.60
2023-04-23T05:10:50.654Z,21.40
2023-04-23T05:13:17.542Z,21.20
2023-04-23T05:15:44.041Z,20.70
2023-04-23T05:18:11.375Z,21.90
2023-04-23T05:20:38.566Z,21.80
2023-04-23T05:23:05.032Z,21.80
2023-04-23T05:25:32.184Z,22.50
2023-04-23T05:27:58.838Z,21.20
2023-04-23T05:30:25.361Z,20.80
2023-04-23T05:32:52.282Z,22.50
2023-04-23T05:35:19.585Z,21.90
2023-04-23T05:37:46.487Z,22.60
2023-04-23T05:40:13.245Z,20.50
2023-04-23T05:42:39.749Z,22.40
2023-04-23T05:45:08.848Z,22.00
2023-04-23T05:47:35.861Z,22.70
2023-04-23T05:50:02.723Z,21.40
2023-04-23T05:52:33.386Z,23.30
2023-04-23T05:55:00.193Z,22.40
2023-04-23T05:57:26.806Z,22.10
2023-04-23T05:59:53.270Z,22.40
2023-04-23T06:02:21.373Z,20.90
2023-04-23T06:04:49.294Z,21.30
2023-04-23T06:07:16.564Z,22.30
2023-04-23T06:09:43.187Z,21.30
2023-04-23T06:12:10.995Z,20.90
2023-04-23T06:14:37.623Z,21.40
2023-04-23T06:17:04.464Z,22.00
2023-04-23T06:19:30.964Z,22.20
2023-04-23T06:21:57.792Z,22.50
2023-04-23T06:24:24.364Z,24.50
2023-04-23T06:26:50.955Z,22.60
2023-04-23T06:29:17.697Z,22.70
2023-04-23T06:31:44.234Z,23.40
2023-04-23T06:34:10.751Z,23.30
2023-04-23T06:36:37.248Z,23.40
2023-04-23T06:39:03.779Z,22.70
2023-04-23T06:41:30.582Z,22.10
2023-04-23T06:43:57.163Z,23.20
2023-04-23T06:46:23.667Z,23.60
2023-04-23T06:48:50.411Z,23.20
2023-04-23T06:51:16.916Z,22.90
2023-04-23T06:53:43.315Z,22.80
2023-04-23T06:56:09.897Z,23.00
2023-04-23T06:58:36.465Z,21.50
2023-04-23T07:01:07.572Z,22.60
2023-04-23T07:03:34.271Z,22.60
2023-04-23T07:06:01.325Z,22.80
2023-04-23T07:08:28.051Z,21.80
2023-04-23T07:10:54.874Z,22.10
2023-04-23T07:13:21.808Z,21.60
2023-04-23T07:15:49.675Z,22.80
2023-04-23T07:18:16.503Z,21.70
2023-04-23T07:20:43.610Z,22.30
2023-04-23T07:23:10.984Z,22.30
2023-04-23T07:25:38.013Z,22.40
2023-04-23T07:28:04.744Z,22.80
2023-04-23T07:30:31.360Z,21.10
2023-04-23T07:32:58.031Z,20.20
2023-04-23T07:35:24.626Z,21.30
2023-04-23T07:37:53.879Z,20.80
2023-04-23T07:40:22.437Z,22.50
2023-04-23T07:42:50.276Z,21.50
2023-04-23T07:45:17.344Z,22.90
2023-04-23T07:47:47.385Z,22.60
2023-04-23T07:50:14.303Z,22.10
2023-04-23T07:52:41.502Z,25.00
2023-04-23T07:55:08.948Z,23.60
2023-04-23T07:57:35.746Z,22.60
2023-04-23T08:00:02.578Z,23.30
2023-04-23T08:02:29.413Z,22.70
2023-04-23T08:04:56.245Z,22.50
2023-04-23T08:07:22.869Z,20.00
2023-04-23T08:09:49.458Z,21.40
2023-04-23T08:12:17.344Z,20.40
2023-04-23T08:14:44.553Z,20.00
2023-04-23T08:17:11.860Z,20.30
2023-04-23T08:19:38.577Z,18.60
2023-04-23T08:22:05.827Z,16.40
2023-04-23T08:24:32.430Z,16.30
2023-04-23T08:26:58.901Z,17.30
2023-04-23T08:29:25.660Z,17.20
2023-04-23T08:31:52.749Z,17.30
2023-04-23T08:34:19.232Z,17.30
2023-04-23T08:36:46.438Z,17.60
2023-04-23T08:39:13.227Z,16.10
2023-04-23T08:41:43.930Z,12.80
2023-04-23T08:44:25.348Z,14.00
2023-04-23T08:46:54.580Z,13.60
2023-04-23T08:49:21.647Z,15.30
2023-04-23T08:51:56.369Z,15.60
2023-04-23T08:54:27.196Z,15.10
2023-04-23T08:56:58.239Z,12.60
2023-04-23T08:59:31.714Z,14.60
2023-04-23T09:02:01.043Z,13.30
2023-04-23T09:04:28.476Z,13.70
2023-04-23T09:06:56.091Z,12.40
2023-04-23T09:09:24.047Z,12.00
2023-04-23T09:11:52.290Z,12.00
2023-04-23T09:14:23.022Z,11.60
2023-04-23T09:16:51.055Z,11.50
2023-04-23T09:19:18.621Z,11.00
2023-04-23T09:21:46.798Z,11.50
2023-04-23T09:24:14.799Z,11.40
2023-04-23T09:26:49.099Z,11.30
2023-04-23T09:29:23.840Z,11.30
2023-04-23T09:32:10.691Z,11.40
2023-04-23T09:34:41.213Z,14.90
2023-04-23T09:37:08.085Z,11.20
2023-04-23T09:39:35.973Z,9.70
2023-04-23T09:42:04.412Z,9.50
2023-04-23T09:44:35.037Z,10.20
2023-04-23T09:47:14.458Z,10.80
2023-04-23T09:49:50.980Z,10.70
2023-04-23T09:52:18.503Z,9.60
2023-04-23T09:54:46.581Z,10.10
2023-04-23T09:57:13.523Z,9.30
2023-04-23T10:02:12.679Z,9.90
2023-04-23T10:04:40.194Z,7.20
2023-04-23T10:07:19.089Z,9.10
2023-04-23T10:09:47.202Z,8.00
2023-04-23T10:14:46.124Z,6.90
2023-04-23T10:17:13.208Z,7.60
2023-04-23T10:19:43.544Z,7.80
2023-04-23T10:22:19.514Z,7.40
2023-04-23T10:24:52.180Z,6.90
2023-04-23T10:29:51.568Z,7.10
2023-04-23T10:32:20.170Z,7.60
2023-04-23T10:34:50.733Z,7.40
2023-04-23T10:37:19.369Z,7.40
2023-04-23T10:39:50.376Z,7.30
2023-04-23T10:42:17.598Z,6.80
2023-04-23T10:44:58.035Z,6.80
2023-04-23T10:47:27.975Z,6.80
2023-04-23T10:49:54.788Z,7.00
2023-04-23T10:52:24.563Z,6.60
2023-04-23T10:55:00.045Z,6.60
2023-04-23T10:57:27.035Z,6.50
2023-04-23T10:59:56.344Z,5.80
2023-04-23T11:02:24.479Z,5.60
2023-04-23T11:04:58.824Z,6.40
2023-04-23T11:07:35.490Z,5.60
2023-04-23T11:10:20.393Z,6.20
2023-04-23T11:12:46.997Z,6.20
2023-04-23T11:15:18.268Z,6.80
2023-04-23T11:17:44.971Z,6.40
2023-04-23T11:20:14.264Z,4.80
2023-04-23T11:22:45.124Z,4.70
2023-04-23T11:25:19.314Z,5.30
2023-04-23T11:27:47.213Z,5.60
2023-04-23T11:30:19.764Z,4.80
2023-04-23T11:32:49.242Z,5.50
2023-04-23T11:35:18.353Z,5.10
2023-04-23T11:37:46.182Z,4.40
2023-04-23T11:40:18.465Z,3.80
2023-04-23T11:42:49.694Z,4.30
2023-04-23T11:45:20.457Z,4.40
2023-04-23T11:47:50.773Z,4.50
2023-04-23T11:50:22.172Z,4.40
2023-04-23T11:52:49.110Z,4.60
2023-04-23T11:55:16.804Z,4.50
2023-04-23T11:57:44.984Z,5.10
2023-04-23T12:00:17.629Z,4.40
2023-04-23T12:03:05.818Z,4.00
2023-04-23T12:05:39.705Z,3.90
2023-04-23T12:08:17.768Z,4.50
2023-04-23T12:10:59.177Z,3.80
2023-04-23T12:13:28.139Z,3.60
2023-04-23T12:16:03.770Z,3.50
2023-04-23T12:18:33.518Z,2.50
2023-04-23T12:21:07.794Z,2.90
2023-04-23T12:23:36.219Z,2.40
2023-04-23T12:26:03.332Z,3.40
2023-04-23T12:28:31.230Z,3.60
2023-04-23T12:31:02.580Z,2.80
2023-04-23T12:33:30.435Z,2.70
2023-04-23T12:35:57.926Z,2.40
2023-04-23T12:38:29.517Z,2.20
2023-04-23T12:40:59.125Z,2.80
2023-04-23T12:43:26.650Z,2.60
2023-04-23T12:46:43.904Z,2.30
2023-04-23T12:49:10.652Z,2.00
2023-04-23T12:51:37.622Z,2.20
2023-04-23T12:54:04.596Z,1.70
2023-04-23T12:56:31.177Z,1.60
2023-04-23T12:58:57.990Z,1.30
2023-04-23T13:01:24.854Z,1.00
2023-04-23T13:03:51.818Z,1.00
2023-04-23T13:06:18.802Z,1.10
2023-04-23T13:08:45.736Z,0.80
2023-04-23T13:11:12.346Z,1.20
2023-04-23T13:13:38.894Z,0.80
2023-04-23T13:16:05.648Z,0.80
2023-04-23T13:18:32.510Z,0.70
2023-04-23T13:20:59.028Z,0.70
2023-04-23T13:23:26.444Z,0.60
2023-04-23T13:25:53.400Z,0.60
2023-04-23T13:28:20.219Z,0.70
2023-04-23T13:30:47.278Z,0.60
2023-04-23T13:33:14.463Z,0.70
2023-04-23T13:35:41.252Z,1.00
2023-04-23T13:38:08.049Z,0.90
2023-04-23T13:40:35.400Z,1.00
2023-04-23T13:43:02.204Z,0.80
2023-04-23T13:45:28.813Z,0.90
2023-04-23T13:47:55.376Z,0.80
2023-04-23T13:50:22.111Z,0.80
2023-04-23T13:52:48.725Z,0.70
2023-04-23T13:55:15.750Z,0.80
2023-04-23T13:57:42.602Z,0.70
2023-04-23T14:00:09.908Z,0.70
2023-04-23T14:02:36.541Z,0.60
2023-04-23T14:05:05.402Z,0.70
2023-04-23T14:07:32.662Z,0.60
2023-04-23T14:09:59.349Z,0.70
2023-04-23T14:12:28.759Z,0.80
2023-04-23T14:14:55.717Z,0.60
2023-04-23T14:17:22.401Z,0.90
2023-04-23T14:19:49.117Z,0.90
2023-04-23T14:22:15.796Z,0.70
2023-04-23T14:24:49.834Z,0.90
2023-04-23T14:27:17.425Z,0.70
2023-04-23T14:29:56.316Z,0.80
2023-04-23T14:32:23.301Z,0.90
2023-04-23T14:34:53.088Z,0.90
2023-04-23T14:37:19.894Z,0.80
2023-04-23T14:39:46.832Z,0.80
2023-04-23T14:42:13.467Z,0.70
2023-04-23T14:44:40.223Z,1.30
2023-04-23T14:47:11.796Z,0.90
2023-04-23T14:49:41.690Z,1.00
2023-04-23T14:52:08.996Z,2.20
2023-04-23T14:54:36.289Z,3.10
2023-04-23T14:57:03.231Z,1.30
2023-04-23T14:59:30.104Z,1.00
2023-04-23T15:01:57.144Z,1.80
2023-04-23T15:04:24.061Z,1.20
2023-04-23T15:06:50.702Z,1.50
2023-04-23T15:09:17.618Z,2.20
2023-04-23T15:11:44.742Z,1.50
2023-04-23T15:14:43.732Z,1.60
2023-04-23T15:17:10.526Z,1.50
2023-04-23T15:19:37.278Z,1.30
2023-04-23T15:22:03.707Z,0.70
2023-04-23T15:24:30.226Z,1.00
2023-04-23T15:26:59.137Z,0.90
2023-04-23T15:29:26.125Z,1.20
2023-04-23T15:31:57.915Z,1.10
2023-04-23T15:34:24.589Z,0.80
2023-04-23T15:36:51.047Z,1.00
2023-04-23T15:39:17.467Z,0.90
2023-04-23T15:41:45.985Z,0.90
2023-04-23T15:44:12.835Z,0.80
2023-04-23T15:46:39.868Z,0.70
2023-04-23T15:49:06.426Z,0.60
2023-04-23T15:51:33.088Z,1.50
2023-04-23T15:54:00.705Z,1.00
2023-04-23T15:56:27.459Z,0.70
2023-04-23T15:58:54.173Z,0.90
2023-04-23T16:01:20.920Z,0.80
2023-04-23T16:04:01.820Z,0.90
2023-04-23T16:06:33.908Z,1.70
2023-04-23T16:09:02.317Z,1.10
2023-04-23T16:11:29.669Z,1.10
2023-04-23T16:13:57.005Z,0.80
2023-04-23T16:16:23.759Z,0.70
2023-04-23T16:18:50.731Z,1.10
2023-04-23T16:21:17.520Z,0.80
2023-04-23T16:23:44.072Z,1.20
2023-04-23T16:26:11.259Z,1.20
2023-04-23T16:28:38.110Z,1.20
2023-04-23T16:31:04.858Z,1.20
2023-04-23T16:33:31.564Z,1.20
2023-04-23T16:35:59.463Z,1.00
2023-04-23T16:38:26.060Z,1.00
2023-04-23T16:40:52.628Z,1.10
2023-04-23T16:43:19.358Z,1.20
2023-04-23T16:45:46.062Z,1.40
2023-04-23T16:48:16.517Z,1.20
2023-04-23T16:50:44.228Z,1.10
2023-04-23T16:53:11.062Z,2.30
2023-04-23T16:55:38.200Z,1.40
2023-04-23T16:58:05.803Z,1.40
2023-04-23T17:00:32.672Z,1.80
2023-04-23T17:03:00.218Z,1.70
2023-04-23T17:05:30.924Z,3.90
2023-04-23T17:07:57.957Z,2.40
2023-04-23T17:10:24.719Z,1.80
2023-04-23T17:12:54.135Z,1.40
2023-04-23T17:15:22.751Z,1.50
2023-04-23T17:17:49.783Z,1.50
2023-04-23T17:20:16.754Z,1.40
2023-04-23T17:22:43.420Z,1.60
2023-04-23T17:25:10.142Z,1.80
2023-04-23T17:27:37.078Z,1.60
2023-04-23T17:30:04.536Z,1.40
2023-04-23T17:32:31.191Z,1.60
2023-04-23T17:35:08.891Z,1.60
2023-04-23T17:37:36.938Z,2.00
2023-04-23T17:40:05.777Z,2.20
2023-04-23T17:42:32.247Z,2.10
2023-04-23T17:44:58.731Z,1.90
2023-04-23T17:47:26.049Z,2.00
2023-04-23T17:49:52.647Z,2.10
2023-04-23T17:52:19.351Z,2.00
2023-04-23T17:54:46.076Z,2.00
2023-04-23T17:57:12.896Z,2.00
2023-04-23T17:59:39.881Z,1.90
2023-04-23T18:02:07.001Z,1.90
2023-04-23T18:04:34.861Z,2.00
2023-04-23T18:07:01.529Z,2.10
2023-04-23T18:09:28.407Z,2.10
2023-04-23T18:11:59.010Z,2.20
2023-04-23T18:14:25.650Z,2.80
2023-04-23T18:16:52.264Z,2.40
2023-04-23T18:19:19.058Z,2.30
2023-04-23T18:21:45.880Z,2.40
2023-04-23T18:24:13.333Z,2.60
2023-04-23T18:26:40.302Z,2.50
2023-04-23T18:29:06.956Z,2.60
2023-04-23T18:31:33.849Z,2.50
2023-04-23T18:34:03.808Z,2.70
2023-04-23T18:36:32.374Z,2.50
2023-04-23T18:38:59.284Z,2.40
2023-04-23T18:41:28.674Z,2.50
2023-04-23T18:43:55.543Z,2.20
2023-04-23T18:46:23.342Z,2.80
2023-04-23T18:48:59.908Z,3.00
2023-04-23T18:51:33.110Z,2.50
2023-04-23T18:54:01.695Z,2.60
2023-04-23T18:56:28.477Z,2.50
2023-04-23T18:58:55.352Z,3.00
2023-04-23T19:01:21.957Z,2.60
2023-04-23T19:03:48.941Z,2.80
2023-04-23T19:06:16.000Z,2.80
2023-04-23T19:08:42.710Z,2.90
2023-04-23T19:11:09.253Z,2.70
2023-04-23T19:13:36.016Z,2.80
2023-04-23T19:16:02.860Z,2.70
2023-04-23T19:18:29.544Z,2.90
2023-04-23T19:20:56.520Z,2.60
2023-04-23T19:23:23.088Z,2.70
2023-04-23T19:25:49.586Z,2.70
2023-04-23T19:28:16.371Z,2.90
2023-04-23T19:30:43.092Z,2.90
2023-04-23T19:33:10.183Z,3.00
2023-04-23T19:35:39.392Z,2.70
2023-04-23T19:38:06.915Z,2.90
2023-04-23T19:40:33.684Z,2.50
2023-04-23T19:43:00.275Z,2.30
2023-04-23T19:45:27.334Z,2.40
2023-04-23T19:47:53.977Z,2.60
2023-04-23T19:50:20.637Z,2.60
2023-04-23T19:52:47.369Z,2.50
2023-04-23T19:55:14.445Z,2.40
2023-04-23T19:57:41.114Z,2.30
2023-04-23T20:00:12.335Z,2.60
2023-04-23T20:02:39.021Z,2.60
2023-04-23T20:05:06.269Z,2.70
2023-04-23T20:07:32.963Z,2.60
2023-04-23T20:09:59.881Z,2.60
2023-04-23T20:12:26.567Z,2.50
2023-04-23T20:14:54.256Z,2.50
2023-04-23T20:17:20.781Z,2.40
2023-04-23T20:19:47.619Z,2.60
2023-04-23T20:22:14.327Z,2.60
2023-04-23T20:24:46.167Z,2.60
2023-04-23T20:27:13.232Z,2.60
2023-04-23T20:29:39.905Z,2.90
2023-04-23T20:32:06.873Z,3.10
2023-04-23T20:34:33.663Z,2.60
2023-04-23T20:37:01.124Z,2.80
2023-04-23T20:39:27.960Z,2.80
2023-04-23T20:41:55.360Z,3.10
2023-04-23T20:44:22.698Z,3.00
2023-04-23T20:46:52.800Z,3.30
2023-04-23T20:49:20.473Z,3.00
2023-04-23T20:51:47.322Z,3.30
2023-04-23T20:54:14.038Z,3.80
2023-04-23T20:56:40.641Z,3.40
2023-04-23T20:59:07.445Z,3.40
2023-04-23T21:01:34.192Z,3.40
2023-04-23T21:04:01.070Z,4.10
2023-04-23T21:06:29.128Z,3.90
2023-04-23T21:08:55.519Z,3.50
2023-04-23T21:11:22.339Z,3.70
2023-04-23T21:13:49.024Z,3.40
2023-04-23T21:16:15.620Z,3.30
2023-04-23T21:18:43.753Z,3.40
2023-04-23T21:21:10.649Z,3.80
2023-04-23T21:23:37.304Z,3.70
2023-04-23T21:26:04.054Z,3.90
2023-04-23T21:28:31.682Z,3.70
2023-04-23T21:31:05.710Z,3.50
2023-04-23T21:33:32.555Z,3.30
2023-04-23T21:35:59.380Z,4.30
2023-04-23T21:38:26.174Z,4.00
2023-04-23T21:40:53.468Z,4.20
2023-04-23T21:43:19.946Z,3.20
2023-04-23T21:45:46.691Z,3.30
2023-04-23T21:48:13.322Z,3.30
2023-04-23T21:50:39.903Z,2.90
2023-04-23T21:53:07.064Z,2.20
2023-04-23T21:55:34.045Z,1.90
2023-04-23T21:58:15.891Z,1.40
2023-04-23T22:00:44.937Z,1.60
2023-04-23T22:03:13.349Z,1.00
2023-04-23T22:05:42.834Z,1.20
2023-04-23T22:08:09.715Z,1.10
2023-04-23T22:10:42.825Z,1.20
2023-04-23T22:13:09.637Z,1.00
2023-04-23T22:15:36.309Z,1.10
2023-04-23T22:18:03.200Z,1.20
2023-04-23T22:20:30.713Z,1.00
2023-04-23T22:22:57.391Z,1.20
2023-04-23T22:25:24.652Z,1.20
2023-04-23T22:27:51.346Z,1.20
2023-04-23T22:30:18.166Z,1.20
2023-04-23T22:32:45.152Z,1.20
2023-04-23T22:35:11.921Z,1.30
2023-04-23T22:37:39.392Z,1.40
2023-04-23T22:40:08.048Z,1.50
2023-04-23T22:42:35.074Z,1.50
2023-04-23T22:45:01.819Z,1.40
2023-04-23T22:47:28.698Z,1.40
2023-04-23T22:49:55.298Z,1.30
2023-04-23T22:52:22.029Z,1.30
2023-04-23T22:54:48.743Z,1.00
2023-04-23T22:57:15.426Z,1.10
2023-04-23T22:59:42.539Z,0.90
2023-04-23T23:02:09.672Z,1.10
2023-04-23T23:04:38.419Z,1.00
2023-04-23T23:07:09.070Z,0.80
2023-04-23T23:09:36.005Z,1.00
2023-04-23T23:12:04.101Z,0.70
2023-04-23T23:14:31.832Z,0.70
2023-04-23T23:16:59.127Z,0.80
2023-04-23T23:19:30.889Z,0.70
2023-04-23T23:21:57.771Z,0.70
2023-04-23T23:24:24.629Z,0.60
2023-04-23T23:26:51.550Z,0.70
2023-04-23T23:29:18.221Z,0.60
2023-04-23T23:31:44.773Z,0.60
2023-04-23T23:34:12.100Z,0.60
2023-04-23T23:36:38.587Z,0.60
2023-04-23T23:39:06.505Z,0.70
2023-04-23T23:41:33.072Z,0.70
2023-04-23T23:43:59.873Z,0.60
2023-04-23T23:46:26.297Z,0.70
2023-04-23T23:48:54.282Z,0.60
2023-04-23T23:51:20.771Z,0.70
2023-04-23T23:53:47.227Z,0.70
2023-04-23T23:56:13.784Z,0.70
2023-04-23T23:58:40.450Z,0.80
